sensor_id;sensor_type;location;lat;lon;timestamp;P1;durP1;ratioP1;P2;durP2;ratioP2
36923;SDS011;22841;50.252;18.688;2023-03-04T07:26:27;71.20;;;28.70;;
36923;SDS011;22841;50.252;18.688;2023-03-04T08:43:49;74.88;;;29.08;;
36923;SDS011;22841;50.252;18.688;2023-03-04T09:55:53;70.60;;;28.90;;
36923;SDS011;22841;50.252;18.688;2023-03-04T10:14:30;48.47;;;23.58;;
36923;SDS011;22841;50.252;18.688;2023-03-04T10:19:58;65.33;;;25.43;;
36923;SDS011;22841;50.252;18.688;2023-03-04T10:27:42;58.20;;;27.13;;
36923;SDS011;22841;50.252;18.688;2023-03-04T10:33:15;53.00;;;25.98;;
36923;SDS011;22841;50.252;18.688;2023-03-04T10:35:44;65.18;;;28.88;;
36923;SDS011;22841;50.252;18.688;2023-03-04T10:38:20;60.95;;;27.63;;
36923;SDS011;22841;50.252;18.688;2023-03-04T10:40:47;70.15;;;30.08;;
36923;SDS011;22841;50.252;18.688;2023-03-04T10:43:18;75.57;;;31.05;;
36923;SDS011;22841;50.252;18.688;2023-03-04T10:45:44;69.85;;;28.70;;
36923;SDS011;22841;50.252;18.688;2023-03-04T10:48:19;74.15;;;29.58;;
36923;SDS011;22841;50.252;18.688;2023-03-04T10:50:48;76.95;;;32.40;;
36923;SDS011;22841;50.252;18.688;2023-03-04T10:53:22;82.07;;;32.55;;
36923;SDS011;22841;50.252;18.688;2023-03-04T10:55:49;84.90;;;32.92;;
36923;SDS011;22841;50.252;18.688;2023-03-04T10:58:15;84.10;;;31.67;;
36923;SDS011;22841;50.252;18.688;2023-03-04T11:00:43;85.53;;;33.78;;
36923;SDS011;22841;50.252;18.688;2023-03-04T11:03:28;87.88;;;35.28;;
36923;SDS011;22841;50.252;18.688;2023-03-04T11:08:38;76.88;;;30.48;;
36923;SDS011;22841;50.252;18.688;2023-03-04T11:17:00;78.43;;;31.27;;
36923;SDS011;22841;50.252;18.688;2023-03-04T11:19:40;83.28;;;34.40;;
36923;SDS011;22841;50.252;18.688;2023-03-04T11:22:11;81.07;;;32.80;;
36923;SDS011;22841;50.252;18.688;2023-03-04T11:24:40;77.72;;;30.75;;
36923;SDS011;22841;50.252;18.688;2023-03-04T11:27:18;81.70;;;30.17;;
36923;SDS011;22841;50.252;18.688;2023-03-04T11:29:55;88.80;;;34.33;;
36923;SDS011;22841;50.252;18.688;2023-03-04T11:32:27;81.93;;;32.60;;
36923;SDS011;22841;50.252;18.688;2023-03-04T11:40:49;81.22;;;31.02;;
36923;SDS011;22841;50.252;18.688;2023-03-04T11:43:37;85.22;;;33.25;;
36923;SDS011;22841;50.252;18.688;2023-03-04T11:48:58;73.95;;;27.83;;
36923;SDS011;22841;50.252;18.688;2023-03-04T11:56:50;76.32;;;30.60;;
36923;SDS011;22841;50.252;18.688;2023-03-04T12:02:18;64.53;;;27.98;;
36923;SDS011;22841;50.252;18.688;2023-03-04T12:12:50;68.13;;;27.25;;
36923;SDS011;22841;50.252;18.688;2023-03-04T12:54:52;44.40;;;19.08;;
36923;SDS011;22841;50.252;18.688;2023-03-04T12:57:24;52.38;;;22.13;;
36923;SDS011;22841;50.252;18.688;2023-03-04T13:05:19;47.55;;;20.30;;
36923;SDS011;22841;50.252;18.688;2023-03-04T13:18:29;36.45;;;15.65;;
36923;SDS011;22841;50.252;18.688;2023-03-04T13:28:45;41.30;;;16.63;;
36923;SDS011;22841;50.252;18.688;2023-03-04T14:12:54;24.48;;;13.32;;
36923;SDS011;22841;50.252;18.688;2023-03-04T14:25:46;31.88;;;14.40;;
36923;SDS011;22841;50.252;18.688;2023-03-04T14:28:13;31.33;;;12.68;;
36923;SDS011;22841;50.252;18.688;2023-03-04T14:33:21;33.47;;;15.20;;
36923;SDS011;22841;50.252;18.688;2023-03-04T14:48:51;53.60;;;24.00;;
36923;SDS011;22841;50.252;18.688;2023-03-04T14:59:11;48.55;;;23.80;;
36923;SDS011;22841;50.252;18.688;2023-03-04T15:22:25;56.90;;;25.30;;
36923;SDS011;22841;50.252;18.688;2023-03-04T15:24:51;51.47;;;22.42;;
36923;SDS011;22841;50.252;18.688;2023-03-04T15:27:18;51.97;;;21.95;;
36923;SDS011;22841;50.252;18.688;2023-03-04T15:29:48;59.20;;;26.30;;
36923;SDS011;22841;50.252;18.688;2023-03-04T16:26:42;55.25;;;23.80;;
36923;SDS011;22841;50.252;18.688;2023-03-04T16:39:32;49.00;;;22.88;;
36923;SDS011;22841;50.252;18.688;2023-03-04T17:45:06;56.72;;;25.75;;
36923;SDS011;22841;50.252;18.688;2023-03-04T17:52:46;61.92;;;27.23;;
36923;SDS011;22841;50.252;18.688;2023-03-04T17:55:12;64.15;;;28.65;;
36923;SDS011;22841;50.252;18.688;2023-03-04T17:57:38;63.30;;;27.88;;
36923;SDS011;22841;50.252;18.688;2023-03-04T18:00:04;61.80;;;25.65;;
36923;SDS011;22841;50.252;18.688;2023-03-04T18:02:31;54.85;;;24.85;;
36923;SDS011;22841;50.252;18.688;2023-03-04T18:04:57;54.92;;;24.67;;
36923;SDS011;22841;50.252;18.688;2023-03-04T18:07:26;46.90;;;23.58;;
36923;SDS011;22841;50.252;18.688;2023-03-04T18:09:53;58.13;;;25.20;;
36923;SDS011;22841;50.252;18.688;2023-03-04T18:12:19;52.45;;;24.35;;
36923;SDS011;22841;50.252;18.688;2023-03-04T18:14:45;52.97;;;24.40;;
36923;SDS011;22841;50.252;18.688;2023-03-04T18:17:11;64.22;;;29.88;;
36923;SDS011;22841;50.252;18.688;2023-03-04T18:19:37;62.75;;;27.45;;
36923;SDS011;22841;50.252;18.688;2023-03-04T18:22:03;56.75;;;24.45;;
36923;SDS011;22841;50.252;18.688;2023-03-04T18:24:30;62.55;;;26.85;;
36923;SDS011;22841;50.252;18.688;2023-03-04T18:26:56;63.15;;;28.52;;
36923;SDS011;22841;50.252;18.688;2023-03-04T18:29:22;69.85;;;27.88;;
36923;SDS011;22841;50.252;18.688;2023-03-04T18:31:48;69.70;;;29.88;;
36923;SDS011;22841;50.252;18.688;2023-03-04T18:34:14;84.05;;;34.97;;
36923;SDS011;22841;50.252;18.688;2023-03-04T18:36:40;76.93;;;32.90;;
36923;SDS011;22841;50.252;18.688;2023-03-04T18:39:06;76.65;;;33.08;;
36923;SDS011;22841;50.252;18.688;2023-03-04T18:41:33;80.95;;;32.13;;
36923;SDS011;22841;50.252;18.688;2023-03-04T18:43:59;84.60;;;31.95;;
36923;SDS011;22841;50.252;18.688;2023-03-04T18:46:47;62.80;;;29.95;;
36923;SDS011;22841;50.252;18.688;2023-03-04T18:49:14;86.35;;;33.28;;
36923;SDS011;22841;50.252;18.688;2023-03-04T18:51:40;92.97;;;39.25;;
36923;SDS011;22841;50.252;18.688;2023-03-04T18:54:07;95.50;;;36.45;;
36923;SDS011;22841;50.252;18.688;2023-03-04T18:56:43;88.45;;;34.42;;
36923;SDS011;22841;50.252;18.688;2023-03-04T19:01:49;65.97;;;28.27;;
36923;SDS011;22841;50.252;18.688;2023-03-04T19:04:17;79.00;;;30.45;;
36923;SDS011;22841;50.252;18.688;2023-03-04T19:06:45;81.60;;;31.70;;
36923;SDS011;22841;50.252;18.688;2023-03-04T19:09:11;62.28;;;28.33;;
36923;SDS011;22841;50.252;18.688;2023-03-04T19:11:37;69.93;;;30.17;;
36923;SDS011;22841;50.252;18.688;2023-03-04T19:14:03;67.45;;;30.20;;
36923;SDS011;22841;50.252;18.688;2023-03-04T19:16:30;74.20;;;33.13;;
36923;SDS011;22841;50.252;18.688;2023-03-04T19:18:56;80.30;;;35.67;;
36923;SDS011;22841;50.252;18.688;2023-03-04T19:21:22;71.85;;;31.65;;
36923;SDS011;22841;50.252;18.688;2023-03-04T19:23:48;66.30;;;28.85;;
36923;SDS011;22841;50.252;18.688;2023-03-04T19:26:15;61.83;;;27.13;;
36923;SDS011;22841;50.252;18.688;2023-03-04T19:28:41;62.75;;;27.13;;
36923;SDS011;22841;50.252;18.688;2023-03-04T19:31:07;44.55;;;20.88;;
36923;SDS011;22841;50.252;18.688;2023-03-04T19:33:35;38.28;;;20.02;;
36923;SDS011;22841;50.252;18.688;2023-03-04T19:36:04;37.42;;;20.48;;
36923;SDS011;22841;50.252;18.688;2023-03-04T19:38:31;44.47;;;21.48;;
36923;SDS011;22841;50.252;18.688;2023-03-04T19:40:58;40.15;;;19.25;;
36923;SDS011;22841;50.252;18.688;2023-03-04T19:43:31;37.47;;;18.80;;
36923;SDS011;22841;50.252;18.688;2023-03-04T19:46:01;41.65;;;20.00;;
36923;SDS011;22841;50.252;18.688;2023-03-04T19:48:27;37.17;;;16.95;;
36923;SDS011;22841;50.252;18.688;2023-03-04T19:50:53;35.47;;;18.42;;
36923;SDS011;22841;50.252;18.688;2023-03-04T19:53:19;40.63;;;19.60;;
36923;SDS011;22841;50.252;18.688;2023-03-04T19:55:47;32.15;;;16.77;;
36923;SDS011;22841;50.252;18.688;2023-03-04T19:58:14;34.22;;;15.23;;
36923;SDS011;22841;50.252;18.688;2023-03-04T20:00:40;24.60;;;12.60;;
36923;SDS011;22841;50.252;18.688;2023-03-04T20:03:06;26.35;;;10.75;;
36923;SDS011;22841;50.252;18.688;2023-03-04T20:05:33;21.67;;;10.48;;
36923;SDS011;22841;50.252;18.688;2023-03-04T20:08:00;17.02;;;7.68;;
36923;SDS011;22841;50.252;18.688;2023-03-04T20:10:33;19.25;;;9.93;;
36923;SDS011;22841;50.252;18.688;2023-03-04T20:13:03;17.65;;;9.13;;
36923;SDS011;22841;50.252;18.688;2023-03-04T20:15:31;24.48;;;10.93;;
36923;SDS011;22841;50.252;18.688;2023-03-04T20:17:59;20.60;;;8.90;;
36923;SDS011;22841;50.252;18.688;2023-03-04T20:20:27;21.05;;;8.45;;
36923;SDS011;22841;50.252;18.688;2023-03-04T20:22:54;26.13;;;9.32;;
36923;SDS011;22841;50.252;18.688;2023-03-04T20:25:20;23.33;;;11.02;;
36923;SDS011;22841;50.252;18.688;2023-03-04T20:27:47;50.15;;;19.00;;
36923;SDS011;22841;50.252;18.688;2023-03-04T20:30:13;58.85;;;22.52;;
36923;SDS011;22841;50.252;18.688;2023-03-04T20:32:40;38.03;;;14.65;;
36923;SDS011;22841;50.252;18.688;2023-03-04T20:35:06;32.45;;;13.20;;
36923;SDS011;22841;50.252;18.688;2023-03-04T20:37:38;32.20;;;14.63;;
36923;SDS011;22841;50.252;18.688;2023-03-04T20:40:04;32.85;;;14.70;;
36923;SDS011;22841;50.252;18.688;2023-03-04T20:42:31;28.02;;;13.02;;
36923;SDS011;22841;50.252;18.688;2023-03-04T20:44:58;32.70;;;15.75;;
36923;SDS011;22841;50.252;18.688;2023-03-04T20:47:24;69.20;;;27.98;;
36923;SDS011;22841;50.252;18.688;2023-03-04T20:49:50;50.53;;;23.42;;
36923;SDS011;22841;50.252;18.688;2023-03-04T20:52:16;57.28;;;23.98;;
36923;SDS011;22841;50.252;18.688;2023-03-04T20:54:43;57.50;;;26.35;;
36923;SDS011;22841;50.252;18.688;2023-03-04T20:57:09;58.08;;;24.85;;
36923;SDS011;22841;50.252;18.688;2023-03-04T20:59:35;70.38;;;25.00;;
36923;SDS011;22841;50.252;18.688;2023-03-04T21:02:04;84.80;;;31.90;;
36923;SDS011;22841;50.252;18.688;2023-03-04T21:04:32;82.45;;;32.30;;
36923;SDS011;22841;50.252;18.688;2023-03-04T21:06:59;103.07;;;37.30;;
36923;SDS011;22841;50.252;18.688;2023-03-04T21:09:26;119.57;;;43.00;;
36923;SDS011;22841;50.252;18.688;2023-03-04T21:11:52;128.18;;;46.03;;
36923;SDS011;22841;50.252;18.688;2023-03-04T21:14:20;116.40;;;42.20;;
36923;SDS011;22841;50.252;18.688;2023-03-04T21:16:48;110.60;;;44.75;;
36923;SDS011;22841;50.252;18.688;2023-03-04T21:19:16;105.75;;;38.00;;
36923;SDS011;22841;50.252;18.688;2023-03-04T21:21:45;100.43;;;37.85;;
36923;SDS011;22841;50.252;18.688;2023-03-04T21:24:13;71.40;;;28.90;;
36923;SDS011;22841;50.252;18.688;2023-03-04T21:26:40;61.00;;;26.25;;
36923;SDS011;22841;50.252;18.688;2023-03-04T21:29:13;56.20;;;22.92;;
36923;SDS011;22841;50.252;18.688;2023-03-04T21:31:42;41.13;;;19.75;;
36923;SDS011;22841;50.252;18.688;2023-03-04T21:34:14;34.97;;;16.88;;
36923;SDS011;22841;50.252;18.688;2023-03-04T21:36:46;32.00;;;15.70;;
36923;SDS011;22841;50.252;18.688;2023-03-04T21:39:15;26.50;;;14.93;;
36923;SDS011;22841;50.252;18.688;2023-03-04T21:41:43;53.42;;;18.63;;
36923;SDS011;22841;50.252;18.688;2023-03-04T21:44:09;61.90;;;20.73;;
36923;SDS011;22841;50.252;18.688;2023-03-04T21:46:35;38.05;;;16.13;;
36923;SDS011;22841;50.252;18.688;2023-03-04T23:08:56;136.10;;;46.67;;
36923;SDS011;22841;50.252;18.688;2023-03-04T23:54:23;25.48;;;11.77;;
36923;SDS011;22841;50.252;18.688;2023-03-04T23:59:26;26.65;;;10.98;;
